createdAt,value
2019-03-22T00:01:56.262Z,48.33
2019-03-22T00:04:24.698Z,58.87
2019-03-22T00:06:53.147Z,51.83
2019-03-22T00:09:21.602Z,60.33
2019-03-22T00:11:50.145Z,59.60
2019-03-22T00:14:18.651Z,58.23
2019-03-22T00:16:47.090Z,65.63
2019-03-22T00:19:15.561Z,75.07
2019-03-22T00:21:44.004Z,66.23
2019-03-22T00:24:12.452Z,53.07
2019-03-22T00:26:40.928Z,50.23
2019-03-22T00:29:09.391Z,49.00
2019-03-22T00:31:37.907Z,61.43
2019-03-22T00:34:06.410Z,65.73
2019-03-22T00:36:34.932Z,77.33
2019-03-22T00:39:03.946Z,61.87
2019-03-22T00:41:32.434Z,73.17
2019-03-22T00:44:00.887Z,58.43
2019-03-22T00:46:29.337Z,64.57
2019-03-22T00:48:57.789Z,64.13
2019-03-22T00:51:26.281Z,57.20
2019-03-22T00:53:54.733Z,65.03
2019-03-22T00:56:23.199Z,52.70
2019-03-22T00:58:51.743Z,53.30
2019-03-22T01:01:20.192Z,51.20
2019-03-22T01:03:48.645Z,55.93
2019-03-22T01:06:17.093Z,57.87
2019-03-22T01:08:45.560Z,54.27
2019-03-22T01:11:14.069Z,49.77
2019-03-22T01:13:42.626Z,69.40
2019-03-22T01:16:11.107Z,67.90
2019-03-22T01:18:39.658Z,70.07
2019-03-22T01:21:08.128Z,69.37
2019-03-22T01:23:36.629Z,69.30
2019-03-22T01:26:05.098Z,67.50
2019-03-22T01:28:33.806Z,61.07
2019-03-22T01:31:02.317Z,75.77
2019-03-22T01:33:30.818Z,70.70
2019-03-22T01:35:59.337Z,57.67
2019-03-22T01:38:27.827Z,58.17
2019-03-22T01:40:56.307Z,61.37
2019-03-22T01:43:24.805Z,65.27
2019-03-22T01:45:53.275Z,60.60
2019-03-22T01:48:21.742Z,56.77
2019-03-22T01:50:50.196Z,76.00
2019-03-22T01:53:18.641Z,53.53
2019-03-22T01:55:47.119Z,51.60
2019-03-22T01:58:15.557Z,52.37
2019-03-22T02:00:46.986Z,61.63
2019-03-22T02:03:15.450Z,56.17
2019-03-22T02:05:43.970Z,50.50
2019-03-22T02:08:12.418Z,48.47
2019-03-22T02:10:40.960Z,60.70
2019-03-22T02:13:09.405Z,52.63
2019-03-22T02:15:37.863Z,50.63
2019-03-22T02:18:06.405Z,54.47
2019-03-22T02:20:34.838Z,47.23
2019-03-22T02:23:03.299Z,52.50
2019-03-22T02:25:31.739Z,47.40
2019-03-22T02:28:04.384Z,74.93
2019-03-22T02:30:30.387Z,51.20
2019-03-22T02:32:58.842Z,49.23
2019-03-22T02:35:29.426Z,46.63
2019-03-22T02:37:57.476Z,56.93
2019-03-22T02:40:25.952Z,61.93
2019-03-22T02:42:54.473Z,62.67
2019-03-22T02:45:22.908Z,57.80
2019-03-22T02:47:51.370Z,60.60
2019-03-22T02:50:20.589Z,54.33
2019-03-22T02:52:49.200Z,64.57
2019-03-22T02:55:17.706Z,59.13
2019-03-22T02:57:46.528Z,53.80
2019-03-22T03:00:16.313Z,70.33
2019-03-22T03:02:44.879Z,54.90
2019-03-22T03:05:14.644Z,52.70
2019-03-22T03:07:43.194Z,54.00
2019-03-22T03:10:13.583Z,53.60
2019-03-22T03:12:42.289Z,43.13
2019-03-22T03:15:13.750Z,38.03
2019-03-22T03:17:42.254Z,41.13
2019-03-22T03:20:13.805Z,43.53
2019-03-22T03:22:42.254Z,52.93
2019-03-22T03:25:11.959Z,44.77
2019-03-22T03:27:40.408Z,36.57
2019-03-22T03:30:14.964Z,45.20
2019-03-22T03:32:43.496Z,52.50
2019-03-22T03:35:12.228Z,40.83
2019-03-22T03:37:40.759Z,45.47
2019-03-22T03:40:11.392Z,48.97
2019-03-22T03:42:39.896Z,42.57
2019-03-22T03:45:17.167Z,46.50
2019-03-22T03:47:45.664Z,42.33
2019-03-22T03:50:14.171Z,40.93
2019-03-22T03:52:42.630Z,38.63
2019-03-22T03:55:11.112Z,36.63
2019-03-22T03:57:39.552Z,29.33
2019-03-22T04:00:08.459Z,34.67
2019-03-22T04:02:37.015Z,34.83
2019-03-22T04:05:06.400Z,38.27
2019-03-22T04:07:34.864Z,36.07
2019-03-22T04:10:05.068Z,40.00
2019-03-22T04:12:33.535Z,43.87
2019-03-22T04:15:02.069Z,45.77
2019-03-22T04:17:30.642Z,50.77
2019-03-22T04:19:59.091Z,33.00
2019-03-22T04:22:27.616Z,31.87
2019-03-22T04:24:56.139Z,37.53
2019-03-22T04:27:24.604Z,35.67
2019-03-22T04:29:53.159Z,29.17
2019-03-22T04:32:21.661Z,35.60
2019-03-22T04:34:50.142Z,35.27
2019-03-22T04:37:18.655Z,31.53
2019-03-22T04:39:47.112Z,36.97
2019-03-22T04:42:15.555Z,37.17
2019-03-22T04:44:44.003Z,31.03
2019-03-22T04:47:15.053Z,29.43
2019-03-22T04:49:44.053Z,27.57
2019-03-22T04:52:13.274Z,31.83
2019-03-22T04:54:43.765Z,31.77
2019-03-22T04:57:13.282Z,27.33
2019-03-22T04:59:43.401Z,25.53
2019-03-22T05:02:12.111Z,27.70
2019-03-22T05:04:43.023Z,27.67
2019-03-22T05:07:11.801Z,29.73
2019-03-22T05:09:40.319Z,29.37
2019-03-22T05:12:10.816Z,23.80
2019-03-22T05:14:41.343Z,27.90
2019-03-22T05:17:10.257Z,28.67
2019-03-22T05:19:41.853Z,25.60
2019-03-22T05:22:13.579Z,22.57
2019-03-22T05:24:43.986Z,24.97
2019-03-22T05:27:13.245Z,25.23
2019-03-22T05:29:43.143Z,18.57
2019-03-22T05:32:13.174Z,23.63
2019-03-22T05:34:41.795Z,26.53
2019-03-22T05:37:10.326Z,24.30
2019-03-22T05:39:38.865Z,36.30
2019-03-22T05:42:07.381Z,24.50
2019-03-22T05:44:35.856Z,26.30
2019-03-22T05:47:04.398Z,28.90
2019-03-22T05:49:32.935Z,30.67
2019-03-22T05:52:01.398Z,31.00
2019-03-22T05:54:29.873Z,39.20
2019-03-22T05:56:58.335Z,23.10
2019-03-22T05:59:26.845Z,21.07
2019-03-22T06:01:55.402Z,27.80
2019-03-22T06:04:23.855Z,22.20
2019-03-22T06:06:52.313Z,25.03
2019-03-22T06:09:20.778Z,38.27
2019-03-22T06:11:49.363Z,33.40
2019-03-22T06:14:17.896Z,28.57
2019-03-22T06:16:46.445Z,29.43
2019-03-22T06:19:14.893Z,31.33
2019-03-22T06:21:43.409Z,28.93
2019-03-22T06:24:11.838Z,26.97
2019-03-22T06:26:40.367Z,28.20
2019-03-22T06:29:08.838Z,40.87
2019-03-22T06:31:37.324Z,31.97
2019-03-22T06:34:05.895Z,23.90
2019-03-22T06:36:34.389Z,29.17
2019-03-22T06:39:03.096Z,39.23
2019-03-22T06:41:31.578Z,37.20
2019-03-22T06:44:00.004Z,36.20
2019-03-22T06:46:28.506Z,38.93
2019-03-22T06:48:56.945Z,43.40
2019-03-22T06:51:25.681Z,40.00
2019-03-22T06:53:54.164Z,40.07
2019-03-22T06:56:22.724Z,39.33
2019-03-22T06:58:51.240Z,41.23
2019-03-22T07:01:19.755Z,43.13
2019-03-22T07:03:48.295Z,49.60
2019-03-22T07:06:16.874Z,40.93
2019-03-22T07:08:45.375Z,31.10
2019-03-22T07:11:13.851Z,45.90
2019-03-22T07:13:42.330Z,36.40
2019-03-22T07:16:10.798Z,23.27
2019-03-22T07:18:39.262Z,35.30
2019-03-22T07:21:07.694Z,34.43
2019-03-22T07:23:36.179Z,34.90
2019-03-22T07:26:04.621Z,43.63
2019-03-22T07:28:33.059Z,46.63
2019-03-22T07:31:01.519Z,51.43
2019-03-22T07:33:29.981Z,55.93
2019-03-22T07:35:58.435Z,38.50
2019-03-22T07:38:26.986Z,35.57
2019-03-22T07:40:55.571Z,29.70
2019-03-22T07:43:24.015Z,39.03
2019-03-22T07:45:52.531Z,34.77
2019-03-22T07:48:21.001Z,44.53
2019-03-22T07:50:49.450Z,51.63
2019-03-22T07:53:17.876Z,37.77
2019-03-22T07:55:46.426Z,33.53
2019-03-22T07:58:14.926Z,18.40
2019-03-22T08:00:43.374Z,24.60
2019-03-22T08:03:11.888Z,20.73
2019-03-22T08:05:50.697Z,29.87
2019-03-22T08:08:10.575Z,29.77
2019-03-22T08:10:39.315Z,32.80
2019-03-22T08:13:07.818Z,22.47
2019-03-22T08:15:36.343Z,23.43
2019-03-22T08:18:04.954Z,20.43
2019-03-22T08:20:33.494Z,26.17
2019-03-22T08:23:01.944Z,18.03
2019-03-22T08:25:32.432Z,13.67
2019-03-22T08:28:00.584Z,12.70
2019-03-22T08:30:29.093Z,17.77
2019-03-22T08:32:57.629Z,19.27
2019-03-22T08:35:26.147Z,20.53
2019-03-22T08:37:54.618Z,16.17
2019-03-22T08:40:23.246Z,15.00
2019-03-22T08:42:51.812Z,16.33
2019-03-22T08:45:20.313Z,10.50
2019-03-22T08:47:48.862Z,13.23
2019-03-22T08:50:17.350Z,12.30
2019-03-22T08:52:45.813Z,10.83
2019-03-22T08:55:14.305Z,13.73
2019-03-22T08:57:42.873Z,10.03
2019-03-22T09:00:13.750Z,15.27
2019-03-22T09:02:42.238Z,14.53
2019-03-22T09:05:10.937Z,14.33
2019-03-22T09:07:39.454Z,13.40
2019-03-22T09:10:12.703Z,12.97
2019-03-22T09:12:41.154Z,16.10
2019-03-22T09:15:10.860Z,15.93
2019-03-22T09:17:39.467Z,20.50
2019-03-22T09:20:09.917Z,12.80
2019-03-22T09:26:06.211Z,13.47
2019-03-22T09:28:35.006Z,13.77
2019-03-22T09:31:10.111Z,14.57
2019-03-22T09:37:01.338Z,13.37
2019-03-22T09:39:29.836Z,12.00
2019-03-22T09:41:58.383Z,12.33
2019-03-22T09:44:28.217Z,11.90
2019-03-22T09:46:56.970Z,14.13
2019-03-22T09:49:25.476Z,15.70
2019-03-22T09:51:55.245Z,16.70
2019-03-22T09:54:23.964Z,18.30
2019-03-22T09:56:52.496Z,15.17
2019-03-22T09:59:20.939Z,11.30
2019-03-22T10:01:49.413Z,10.20
2019-03-22T10:04:17.863Z,12.10
2019-03-22T10:06:46.377Z,10.27
2019-03-22T10:09:14.876Z,15.27
2019-03-22T10:11:43.418Z,11.77
2019-03-22T10:14:11.933Z,13.93
2019-03-22T10:16:40.478Z,13.87
2019-03-22T10:19:08.935Z,15.33
2019-03-22T10:21:37.450Z,15.03
2019-03-22T10:24:06.017Z,11.93
2019-03-22T10:26:34.530Z,15.70
2019-03-22T10:29:03.078Z,12.43
2019-03-22T10:31:37.057Z,14.67
2019-03-22T10:34:01.956Z,14.10
2019-03-22T10:36:30.485Z,13.33
2019-03-22T10:38:58.964Z,13.97
2019-03-22T10:41:27.468Z,16.73
2019-03-22T10:43:55.950Z,9.53
2019-03-22T10:46:24.486Z,10.60
2019-03-22T10:48:52.928Z,8.50
2019-03-22T10:51:21.790Z,8.90
2019-03-22T10:53:51.477Z,8.80
2019-03-22T10:56:19.931Z,9.93
2019-03-22T10:58:48.389Z,11.00
2019-03-22T11:01:16.870Z,12.10
2019-03-22T11:03:45.701Z,8.40
2019-03-22T11:06:14.325Z,6.33
2019-03-22T11:08:42.783Z,9.53
2019-03-22T11:11:11.214Z,8.00
2019-03-22T11:13:39.944Z,11.00
2019-03-22T11:16:08.378Z,6.27
2019-03-22T11:18:37.704Z,10.00
2019-03-22T11:21:06.300Z,10.83
2019-03-22T11:23:34.775Z,12.63
2019-03-22T11:26:04.346Z,9.83
2019-03-22T11:28:32.991Z,9.53
2019-03-22T11:31:05.070Z,19.33
2019-03-22T11:33:31.630Z,11.33
2019-03-22T11:36:00.099Z,9.27
2019-03-22T11:38:28.581Z,9.47
2019-03-22T11:40:57.038Z,7.77
2019-03-22T11:43:25.674Z,13.93
2019-03-22T11:45:54.243Z,5.73
2019-03-22T11:48:22.687Z,11.80
2019-03-22T11:50:51.165Z,6.63
2019-03-22T11:53:19.644Z,6.47
2019-03-22T11:55:48.124Z,10.50
2019-03-22T11:58:16.647Z,10.43
2019-03-22T12:00:45.107Z,9.77
2019-03-22T12:03:13.548Z,8.47
2019-03-22T12:05:42.083Z,5.90
2019-03-22T12:08:10.535Z,11.80
2019-03-22T12:10:39.089Z,8.80
2019-03-22T12:13:07.607Z,7.10
2019-03-22T12:15:36.058Z,10.10
2019-03-22T12:18:04.637Z,7.07
2019-03-22T12:20:33.082Z,6.00
2019-03-22T12:23:01.554Z,13.13
2019-03-22T12:25:30.908Z,6.20
2019-03-22T12:27:59.365Z,6.93
2019-03-22T12:30:27.833Z,6.53
2019-03-22T12:32:56.309Z,6.10
2019-03-22T12:35:24.811Z,4.10
2019-03-22T12:37:53.270Z,6.53
2019-03-22T12:40:22.579Z,5.37
2019-03-22T12:42:51.125Z,14.90
2019-03-22T12:45:30.179Z,7.73
2019-03-22T12:47:58.787Z,4.57
2019-03-22T12:50:27.339Z,3.43
2019-03-22T12:52:55.876Z,13.10
2019-03-22T12:55:24.391Z,5.30
2019-03-22T12:57:52.904Z,5.07
2019-03-22T13:00:27.620Z,9.00
2019-03-22T13:02:56.230Z,5.77
2019-03-22T13:05:24.752Z,3.43
2019-03-22T13:07:53.305Z,6.30
2019-03-22T13:10:25.887Z,4.97
2019-03-22T13:12:54.374Z,8.00
2019-03-22T13:15:23.007Z,3.43
2019-03-22T13:17:51.535Z,3.03
2019-03-22T13:20:20.049Z,5.13
2019-03-22T13:22:48.514Z,4.67
2019-03-22T13:25:21.023Z,5.10
2019-03-22T13:27:49.133Z,3.73
2019-03-22T13:30:23.273Z,2.97
2019-03-22T13:32:52.261Z,4.80
2019-03-22T13:35:21.449Z,3.10
2019-03-22T13:37:49.947Z,2.90
2019-03-22T13:40:18.394Z,5.90
2019-03-22T13:42:46.863Z,2.73
2019-03-22T13:45:15.353Z,3.50
2019-03-22T13:47:43.819Z,5.53
2019-03-22T13:50:12.408Z,8.73
2019-03-22T13:52:40.885Z,32.67
2019-03-22T13:55:09.536Z,2.67
2019-03-22T13:57:37.978Z,4.20
2019-03-22T14:00:17.730Z,2.13
2019-03-22T14:02:46.236Z,2.97
2019-03-22T14:05:14.780Z,2.17
2019-03-22T14:07:43.228Z,1.83
2019-03-22T14:10:31.321Z,1.80
2019-03-22T14:13:01.895Z,2.60
2019-03-22T14:15:30.529Z,1.70
2019-03-22T14:17:59.137Z,5.70
2019-03-22T14:20:27.603Z,2.10
2019-03-22T14:22:56.097Z,2.43
2019-03-22T14:25:24.572Z,4.17
2019-03-22T14:27:53.673Z,2.20
2019-03-22T14:30:22.287Z,3.60
2019-03-22T14:32:51.675Z,4.27
2019-03-22T14:35:20.322Z,2.97
2019-03-22T14:37:48.823Z,2.30
2019-03-22T14:40:17.279Z,7.70
2019-03-22T14:42:46.698Z,3.37
2019-03-22T14:45:15.298Z,2.00
2019-03-22T14:47:44.674Z,2.97
2019-03-22T14:50:13.160Z,4.30
2019-03-22T14:52:41.633Z,1.73
2019-03-22T14:55:10.158Z,3.23
2019-03-22T14:57:48.414Z,7.97
2019-03-22T15:00:11.299Z,3.70
2019-03-22T15:02:39.775Z,2.43
2019-03-22T15:05:08.438Z,1.83
2019-03-22T15:07:36.894Z,1.77
2019-03-22T15:10:08.193Z,5.27
2019-03-22T15:12:36.657Z,3.00
2019-03-22T15:15:11.489Z,1.67
2019-03-22T15:17:41.633Z,2.13
2019-03-22T15:20:14.592Z,1.87
2019-03-22T15:22:59.567Z,4.40
2019-03-22T15:25:44.661Z,1.90
2019-03-22T15:28:29.564Z,2.03
2019-03-22T15:31:16.535Z,1.53
2019-03-22T15:33:46.676Z,1.80
2019-03-22T15:36:19.794Z,1.97
2019-03-22T15:39:06.351Z,4.10
2019-03-22T15:41:35.117Z,1.60
2019-03-22T15:44:03.633Z,4.10
2019-03-22T15:46:32.207Z,2.20
2019-03-22T15:49:00.879Z,3.33
2019-03-22T15:51:29.519Z,5.63
2019-03-22T15:53:57.973Z,3.43
2019-03-22T15:56:27.341Z,1.87
2019-03-22T15:58:55.783Z,1.70
2019-03-22T16:01:24.338Z,2.00
2019-03-22T16:03:52.839Z,2.03
2019-03-22T16:06:21.369Z,2.63
2019-03-22T16:08:50.123Z,1.47
2019-03-22T16:11:18.663Z,4.20
2019-03-22T16:13:47.113Z,1.73
2019-03-22T16:16:15.679Z,2.13
2019-03-22T16:18:44.121Z,1.57
2019-03-22T16:21:12.613Z,3.53
2019-03-22T16:23:41.074Z,1.80
2019-03-22T16:26:09.543Z,2.17
2019-03-22T16:28:38.047Z,2.67
2019-03-22T16:31:06.502Z,3.73
2019-03-22T16:33:34.980Z,2.30
2019-03-22T16:36:03.991Z,2.77
2019-03-22T16:38:32.478Z,4.40
2019-03-22T16:41:01.307Z,7.83
2019-03-22T16:43:29.853Z,3.27
2019-03-22T16:45:58.307Z,2.63
2019-03-22T16:48:26.825Z,2.13
2019-03-22T16:50:55.343Z,4.73
2019-03-22T16:53:23.837Z,2.80
2019-03-22T16:55:52.451Z,4.73
2019-03-22T16:58:21.021Z,8.73
2019-03-22T17:00:50.045Z,9.87
2019-03-22T17:03:18.605Z,7.33
2019-03-22T17:05:47.070Z,4.50
2019-03-22T17:08:15.623Z,4.53
2019-03-22T17:10:44.180Z,4.60
2019-03-22T17:13:12.642Z,3.50
2019-03-22T17:15:41.103Z,2.13
2019-03-22T17:18:09.546Z,4.60
2019-03-22T17:20:38.103Z,12.00
2019-03-22T17:23:06.768Z,4.20
2019-03-22T17:25:35.215Z,12.17
2019-03-22T17:28:03.966Z,7.50
2019-03-22T17:30:32.423Z,7.13
2019-03-22T17:33:00.954Z,4.20
2019-03-22T17:35:29.393Z,3.70
2019-03-22T17:37:58.045Z,11.07
2019-03-22T17:40:26.563Z,4.30
2019-03-22T17:42:55.091Z,4.37
2019-03-22T17:45:23.665Z,8.40
2019-03-22T17:47:52.158Z,7.57
2019-03-22T17:50:20.743Z,11.03
2019-03-22T17:52:49.205Z,6.27
2019-03-22T17:55:17.641Z,6.13
2019-03-22T17:57:46.096Z,3.73
2019-03-22T18:00:18.192Z,4.13
2019-03-22T18:02:46.741Z,10.47
2019-03-22T18:05:15.322Z,8.87
2019-03-22T18:07:43.759Z,8.23
2019-03-22T18:10:13.057Z,5.57
2019-03-22T18:12:41.997Z,7.63
2019-03-22T18:15:12.134Z,4.23
2019-03-22T18:17:40.570Z,13.67
2019-03-22T18:20:13.270Z,11.03
2019-03-22T18:22:41.782Z,5.13
2019-03-22T18:25:11.742Z,4.10
2019-03-22T18:27:40.179Z,6.40
2019-03-22T18:30:10.934Z,15.70
2019-03-22T18:32:39.359Z,4.87
2019-03-22T18:35:08.253Z,12.00
2019-03-22T18:37:36.704Z,5.50
2019-03-22T18:40:10.212Z,5.90
2019-03-22T18:42:38.645Z,2.77
2019-03-22T18:45:09.851Z,3.23
2019-03-22T18:47:38.324Z,4.03
2019-03-22T18:50:08.759Z,3.63
2019-03-22T18:52:37.192Z,5.40
2019-03-22T18:55:07.508Z,3.63
2019-03-22T18:57:36.482Z,11.60
2019-03-22T19:00:07.802Z,5.00
2019-03-22T19:02:36.301Z,13.43
2019-03-22T19:05:07.178Z,7.20
2019-03-22T19:07:35.686Z,6.03
2019-03-22T19:10:06.853Z,10.30
2019-03-22T19:12:35.375Z,4.03
2019-03-22T19:15:06.794Z,4.97
2019-03-22T19:17:35.281Z,11.57
2019-03-22T19:20:05.956Z,10.43
2019-03-22T19:22:34.422Z,7.33
2019-03-22T19:25:02.882Z,4.70
2019-03-22T19:27:31.393Z,7.93
2019-03-22T19:29:59.931Z,15.63
2019-03-22T19:32:28.383Z,14.23
2019-03-22T19:34:56.898Z,5.13
2019-03-22T19:37:25.355Z,4.70
2019-03-22T19:39:53.940Z,5.10
2019-03-22T19:42:22.389Z,5.00
2019-03-22T19:44:50.925Z,7.57
2019-03-22T19:47:19.426Z,5.10
2019-03-22T19:49:47.891Z,3.63
2019-03-22T19:52:16.414Z,4.50
2019-03-22T19:54:44.887Z,6.20
2019-03-22T19:57:13.421Z,6.33
2019-03-22T19:59:41.865Z,5.30
2019-03-22T20:02:10.713Z,6.03
2019-03-22T20:04:39.303Z,18.13
2019-03-22T20:07:07.784Z,9.30
2019-03-22T20:09:36.289Z,8.63
2019-03-22T20:12:04.932Z,4.73
2019-03-22T20:14:33.441Z,3.90
2019-03-22T20:17:01.878Z,5.90
2019-03-22T20:19:30.346Z,5.57
2019-03-22T20:21:58.777Z,6.80
2019-03-22T20:24:27.280Z,13.30
2019-03-22T20:26:55.744Z,3.67
2019-03-22T20:29:24.259Z,9.97
2019-03-22T20:31:52.843Z,5.00
2019-03-22T20:34:21.422Z,6.80
2019-03-22T20:36:49.953Z,9.53
2019-03-22T20:39:18.431Z,4.60
2019-03-22T20:41:47.124Z,6.07
2019-03-22T20:44:15.641Z,6.83
2019-03-22T20:46:44.110Z,4.73
2019-03-22T20:49:12.569Z,7.13
2019-03-22T20:51:41.005Z,7.60
2019-03-22T20:54:09.530Z,7.10
2019-03-22T20:56:37.963Z,5.77
2019-03-22T20:59:06.493Z,4.53
2019-03-22T21:01:34.948Z,6.47
2019-03-22T21:04:03.444Z,5.23
2019-03-22T21:06:31.895Z,3.47
2019-03-22T21:09:00.421Z,3.57
2019-03-22T21:11:28.988Z,5.13
2019-03-22T21:13:57.426Z,4.20
2019-03-22T21:16:25.862Z,5.23
2019-03-22T21:18:54.307Z,6.93
2019-03-22T21:21:25.518Z,5.07
2019-03-22T21:23:52.974Z,11.10
2019-03-22T21:26:21.420Z,3.63
2019-03-22T21:28:49.859Z,4.00
2019-03-22T21:31:18.339Z,4.00
2019-03-22T21:33:46.803Z,3.17
2019-03-22T21:36:15.242Z,2.70
2019-03-22T21:38:43.687Z,3.13
2019-03-22T21:41:12.147Z,5.83
2019-03-22T21:43:40.660Z,2.30
2019-03-22T21:46:09.099Z,5.43
2019-03-22T21:48:37.571Z,3.90
2019-03-22T21:51:06.014Z,5.00
2019-03-22T21:53:34.656Z,3.13
2019-03-22T21:56:03.129Z,2.27
2019-03-22T21:58:31.637Z,4.20
2019-03-22T22:01:00.197Z,4.10
2019-03-22T22:03:28.651Z,3.17
2019-03-22T22:05:57.092Z,3.63
2019-03-22T22:08:25.548Z,7.70
2019-03-22T22:10:59.740Z,4.57
2019-03-22T22:13:24.172Z,3.77
2019-03-22T22:15:52.679Z,7.30
2019-03-22T22:18:21.135Z,5.07
2019-03-22T22:20:49.597Z,3.23
2019-03-22T22:23:18.146Z,6.87
2019-03-22T22:25:46.587Z,4.70
2019-03-22T22:28:15.062Z,3.33
2019-03-22T22:30:43.504Z,4.60
2019-03-22T22:33:11.952Z,5.90
2019-03-22T22:35:40.394Z,5.80
2019-03-22T22:38:08.867Z,3.27
2019-03-22T22:40:37.298Z,5.90
2019-03-22T22:43:05.768Z,3.67
2019-03-22T22:45:34.293Z,11.17
2019-03-22T22:48:02.763Z,3.13
2019-03-22T22:50:31.206Z,3.80
2019-03-22T22:52:59.653Z,6.17
2019-03-22T22:55:28.101Z,6.47
2019-03-22T22:57:56.546Z,7.00
2019-03-22T23:00:26.712Z,5.10
2019-03-22T23:02:55.320Z,3.93
2019-03-22T23:05:23.829Z,4.13
2019-03-22T23:07:52.375Z,9.97
2019-03-22T23:10:20.806Z,8.37
2019-03-22T23:12:49.280Z,8.40
2019-03-22T23:15:17.712Z,4.97
2019-03-22T23:17:46.242Z,3.33
2019-03-22T23:20:14.686Z,6.57
2019-03-22T23:22:43.127Z,4.03
2019-03-22T23:25:11.653Z,6.30
2019-03-22T23:27:40.171Z,4.00
2019-03-22T23:30:12.622Z,4.07
2019-03-22T23:32:41.254Z,4.20
2019-03-22T23:35:09.750Z,6.70
2019-03-22T23:37:38.238Z,6.20
2019-03-22T23:40:07.369Z,4.70
2019-03-22T23:42:35.826Z,6.17
2019-03-22T23:45:07.172Z,4.00
2019-03-22T23:47:35.619Z,4.70
2019-03-22T23:50:06.619Z,3.30
2019-03-22T23:52:35.055Z,5.40
2019-03-22T23:55:04.465Z,4.80
2019-03-22T23:57:32.891Z,6.10
